sensor_id;sensor_type;location;lat;lon;timestamp;P1;durP1;ratioP1;P2;durP2;ratioP2
8488;SDS011;4281;45.772;12.852;2023-05-14T00:00:53;1.87;;;1.10;;
8488;SDS011;4281;45.772;12.852;2023-05-14T00:03:20;1.27;;;1.17;;
8488;SDS011;4281;45.772;12.852;2023-05-14T00:05:48;1.70;;;1.17;;
8488;SDS011;4281;45.772;12.852;2023-05-14T00:08:18;1.57;;;1.20;;
8488;SDS011;4281;45.772;12.852;2023-05-14T00:10:45;1.53;;;1.20;;
8488;SDS011;4281;45.772;12.852;2023-05-14T00:13:13;1.30;;;1.10;;
8488;SDS011;4281;45.772;12.852;2023-05-14T00:15:42;1.47;;;1.00;;
8488;SDS011;4281;45.772;12.852;2023-05-14T00:18:10;2.43;;;1.30;;
8488;SDS011;4281;45.772;12.852;2023-05-14T00:20:38;1.63;;;1.23;;
8488;SDS011;4281;45.772;12.852;2023-05-14T00:23:07;1.10;;;1.00;;
8488;SDS011;4281;45.772;12.852;2023-05-14T00:25:36;1.13;;;1.03;;
8488;SDS011;4281;45.772;12.852;2023-05-14T00:28:04;1.93;;;1.10;;
8488;SDS011;4281;45.772;12.852;2023-05-14T00:30:32;1.17;;;1.03;;
8488;SDS011;4281;45.772;12.852;2023-05-14T00:33:00;1.23;;;1.10;;
8488;SDS011;4281;45.772;12.852;2023-05-14T00:35:28;2.23;;;1.10;;
8488;SDS011;4281;45.772;12.852;2023-05-14T00:37:55;1.10;;;1.07;;
8488;SDS011;4281;45.772;12.852;2023-05-14T00:40:24;0.80;;;0.80;;
8488;SDS011;4281;45.772;12.852;2023-05-14T00:42:54;1.23;;;1.17;;
8488;SDS011;4281;45.772;12.852;2023-05-14T00:45:22;1.33;;;1.00;;
8488;SDS011;4281;45.772;12.852;2023-05-14T00:47:50;1.33;;;1.07;;
8488;SDS011;4281;45.772;12.852;2023-05-14T00:50:19;1.03;;;0.87;;
8488;SDS011;4281;45.772;12.852;2023-05-14T00:52:47;2.23;;;1.30;;
8488;SDS011;4281;45.772;12.852;2023-05-14T00:55:15;2.53;;;1.10;;
8488;SDS011;4281;45.772;12.852;2023-05-14T00:57:43;1.77;;;1.10;;
8488;SDS011;4281;45.772;12.852;2023-05-14T01:00:13;1.30;;;1.10;;
8488;SDS011;4281;45.772;12.852;2023-05-14T01:02:42;1.93;;;1.00;;
8488;SDS011;4281;45.772;12.852;2023-05-14T01:05:09;1.03;;;0.93;;
8488;SDS011;4281;45.772;12.852;2023-05-14T01:07:40;1.77;;;0.97;;
8488;SDS011;4281;45.772;12.852;2023-05-14T01:10:14;1.13;;;0.80;;
8488;SDS011;4281;45.772;12.852;2023-05-14T01:12:45;1.80;;;0.80;;
8488;SDS011;4281;45.772;12.852;2023-05-14T01:15:17;1.03;;;0.80;;
8488;SDS011;4281;45.772;12.852;2023-05-14T01:17:47;1.07;;;0.90;;
8488;SDS011;4281;45.772;12.852;2023-05-14T01:20:18;0.97;;;0.90;;
8488;SDS011;4281;45.772;12.852;2023-05-14T01:22:48;0.70;;;0.70;;
8488;SDS011;4281;45.772;12.852;2023-05-14T01:25:16;0.70;;;0.70;;
8488;SDS011;4281;45.772;12.852;2023-05-14T01:27:48;0.70;;;0.70;;
8488;SDS011;4281;45.772;12.852;2023-05-14T01:30:20;0.80;;;0.70;;
8488;SDS011;4281;45.772;12.852;2023-05-14T01:32:52;1.23;;;0.80;;
8488;SDS011;4281;45.772;12.852;2023-05-14T01:35:21;1.20;;;0.87;;
8488;SDS011;4281;45.772;12.852;2023-05-14T01:37:53;0.80;;;0.80;;
8488;SDS011;4281;45.772;12.852;2023-05-14T01:40:22;0.60;;;0.60;;
8488;SDS011;4281;45.772;12.852;2023-05-14T01:42:50;0.70;;;0.70;;
8488;SDS011;4281;45.772;12.852;2023-05-14T01:45:19;0.70;;;0.70;;
8488;SDS011;4281;45.772;12.852;2023-05-14T01:47:47;1.53;;;0.90;;
8488;SDS011;4281;45.772;12.852;2023-05-14T01:50:15;1.37;;;0.70;;
8488;SDS011;4281;45.772;12.852;2023-05-14T01:52:43;1.10;;;0.80;;
8488;SDS011;4281;45.772;12.852;2023-05-14T01:55:13;0.97;;;0.70;;
8488;SDS011;4281;45.772;12.852;2023-05-14T01:57:41;1.13;;;0.90;;
8488;SDS011;4281;45.772;12.852;2023-05-14T02:00:09;1.20;;;0.80;;
8488;SDS011;4281;45.772;12.852;2023-05-14T02:02:38;0.90;;;0.70;;
8488;SDS011;4281;45.772;12.852;2023-05-14T02:05:06;0.93;;;0.63;;
8488;SDS011;4281;45.772;12.852;2023-05-14T02:07:35;0.60;;;0.60;;
8488;SDS011;4281;45.772;12.852;2023-05-14T02:10:03;0.83;;;0.80;;
8488;SDS011;4281;45.772;12.852;2023-05-14T02:12:33;0.80;;;0.70;;
8488;SDS011;4281;45.772;12.852;2023-05-14T02:15:01;2.37;;;0.87;;
8488;SDS011;4281;45.772;12.852;2023-05-14T02:17:29;1.30;;;0.70;;
8488;SDS011;4281;45.772;12.852;2023-05-14T02:19:57;1.13;;;0.60;;
8488;SDS011;4281;45.772;12.852;2023-05-14T02:22:25;1.17;;;0.77;;
8488;SDS011;4281;45.772;12.852;2023-05-14T02:24:53;0.63;;;0.63;;
8488;SDS011;4281;45.772;12.852;2023-05-14T02:27:21;1.67;;;0.90;;
8488;SDS011;4281;45.772;12.852;2023-05-14T02:29:50;0.73;;;0.70;;
8488;SDS011;4281;45.772;12.852;2023-05-14T02:32:18;1.00;;;0.83;;
8488;SDS011;4281;45.772;12.852;2023-05-14T02:34:46;1.27;;;0.60;;
8488;SDS011;4281;45.772;12.852;2023-05-14T02:37:14;0.50;;;0.50;;
8488;SDS011;4281;45.772;12.852;2023-05-14T02:39:42;1.03;;;0.60;;
8488;SDS011;4281;45.772;12.852;2023-05-14T02:42:10;0.83;;;0.80;;
8488;SDS011;4281;45.772;12.852;2023-05-14T02:44:38;0.50;;;0.50;;
8488;SDS011;4281;45.772;12.852;2023-05-14T02:47:07;0.93;;;0.80;;
8488;SDS011;4281;45.772;12.852;2023-05-14T02:49:35;0.83;;;0.70;;
8488;SDS011;4281;45.772;12.852;2023-05-14T02:52:03;0.70;;;0.70;;
8488;SDS011;4281;45.772;12.852;2023-05-14T02:54:31;0.73;;;0.60;;
8488;SDS011;4281;45.772;12.852;2023-05-14T02:56:59;0.90;;;0.70;;
8488;SDS011;4281;45.772;12.852;2023-05-14T02:59:27;0.60;;;0.60;;
8488;SDS011;4281;45.772;12.852;2023-05-14T03:01:55;0.80;;;0.70;;
8488;SDS011;4281;45.772;12.852;2023-05-14T03:04:24;0.90;;;0.77;;
8488;SDS011;4281;45.772;12.852;2023-05-14T03:06:52;0.93;;;0.73;;
8488;SDS011;4281;45.772;12.852;2023-05-14T03:09:20;0.60;;;0.60;;
8488;SDS011;4281;45.772;12.852;2023-05-14T03:11:48;0.70;;;0.60;;
8488;SDS011;4281;45.772;12.852;2023-05-14T03:14:16;1.00;;;0.70;;
8488;SDS011;4281;45.772;12.852;2023-05-14T03:16:44;0.60;;;0.60;;
8488;SDS011;4281;45.772;12.852;2023-05-14T03:19:12;1.27;;;0.70;;
8488;SDS011;4281;45.772;12.852;2023-05-14T03:21:41;0.83;;;0.83;;
8488;SDS011;4281;45.772;12.852;2023-05-14T03:24:09;0.80;;;0.80;;
8488;SDS011;4281;45.772;12.852;2023-05-14T03:26:37;0.70;;;0.70;;
8488;SDS011;4281;45.772;12.852;2023-05-14T03:29:05;0.93;;;0.60;;
8488;SDS011;4281;45.772;12.852;2023-05-14T03:31:33;0.90;;;0.70;;
8488;SDS011;4281;45.772;12.852;2023-05-14T03:34:01;1.60;;;0.80;;
8488;SDS011;4281;45.772;12.852;2023-05-14T03:36:29;0.70;;;0.70;;
8488;SDS011;4281;45.772;12.852;2023-05-14T03:38:58;0.70;;;0.70;;
8488;SDS011;4281;45.772;12.852;2023-05-14T03:41:26;0.60;;;0.60;;
8488;SDS011;4281;45.772;12.852;2023-05-14T03:43:54;0.93;;;0.73;;
8488;SDS011;4281;45.772;12.852;2023-05-14T03:46:22;0.80;;;0.60;;
8488;SDS011;4281;45.772;12.852;2023-05-14T03:48:49;0.70;;;0.70;;
8488;SDS011;4281;45.772;12.852;2023-05-14T03:51:17;0.90;;;0.80;;
8488;SDS011;4281;45.772;12.852;2023-05-14T03:53:45;0.97;;;0.73;;
8488;SDS011;4281;45.772;12.852;2023-05-14T03:56:14;0.83;;;0.80;;
8488;SDS011;4281;45.772;12.852;2023-05-14T03:58:42;0.80;;;0.80;;
8488;SDS011;4281;45.772;12.852;2023-05-14T04:01:10;1.37;;;0.90;;
8488;SDS011;4281;45.772;12.852;2023-05-14T04:03:38;1.63;;;0.67;;
8488;SDS011;4281;45.772;12.852;2023-05-14T04:06:06;1.00;;;0.93;;
8488;SDS011;4281;45.772;12.852;2023-05-14T04:08:34;1.27;;;0.80;;
8488;SDS011;4281;45.772;12.852;2023-05-14T04:11:02;0.90;;;0.90;;
8488;SDS011;4281;45.772;12.852;2023-05-14T04:13:31;0.80;;;0.70;;
8488;SDS011;4281;45.772;12.852;2023-05-14T04:15:59;1.53;;;1.00;;
8488;SDS011;4281;45.772;12.852;2023-05-14T04:18:26;0.73;;;0.73;;
8488;SDS011;4281;45.772;12.852;2023-05-14T04:20:55;0.90;;;0.80;;
8488;SDS011;4281;45.772;12.852;2023-05-14T04:23:22;1.13;;;1.03;;
8488;SDS011;4281;45.772;12.852;2023-05-14T04:25:50;0.90;;;0.90;;
8488;SDS011;4281;45.772;12.852;2023-05-14T04:28:18;1.33;;;1.00;;
8488;SDS011;4281;45.772;12.852;2023-05-14T04:30:48;1.30;;;0.80;;
8488;SDS011;4281;45.772;12.852;2023-05-14T04:33:16;1.40;;;1.17;;
8488;SDS011;4281;45.772;12.852;2023-05-14T04:35:44;2.10;;;1.20;;
8488;SDS011;4281;45.772;12.852;2023-05-14T04:38:12;1.23;;;1.13;;
8488;SDS011;4281;45.772;12.852;2023-05-14T04:40:40;1.40;;;1.30;;
8488;SDS011;4281;45.772;12.852;2023-05-14T04:43:08;1.57;;;1.20;;
8488;SDS011;4281;45.772;12.852;2023-05-14T04:45:36;2.83;;;1.20;;
8488;SDS011;4281;45.772;12.852;2023-05-14T04:48:07;1.57;;;1.30;;
8488;SDS011;4281;45.772;12.852;2023-05-14T04:50:35;2.13;;;1.30;;
8488;SDS011;4281;45.772;12.852;2023-05-14T04:53:03;1.43;;;1.10;;
8488;SDS011;4281;45.772;12.852;2023-05-14T04:55:31;1.53;;;1.20;;
8488;SDS011;4281;45.772;12.852;2023-05-14T04:57:59;2.70;;;1.40;;
8488;SDS011;4281;45.772;12.852;2023-05-14T05:00:27;1.83;;;1.30;;
8488;SDS011;4281;45.772;12.852;2023-05-14T05:02:55;1.50;;;1.40;;
8488;SDS011;4281;45.772;12.852;2023-05-14T05:05:25;1.57;;;1.30;;
8488;SDS011;4281;45.772;12.852;2023-05-14T05:07:53;1.83;;;1.53;;
8488;SDS011;4281;45.772;12.852;2023-05-14T05:10:21;2.13;;;1.77;;
8488;SDS011;4281;45.772;12.852;2023-05-14T05:12:50;1.80;;;1.70;;
8488;SDS011;4281;45.772;12.852;2023-05-14T05:15:18;2.20;;;1.70;;
8488;SDS011;4281;45.772;12.852;2023-05-14T05:17:46;1.80;;;1.70;;
8488;SDS011;4281;45.772;12.852;2023-05-14T05:20:14;1.80;;;1.70;;
8488;SDS011;4281;45.772;12.852;2023-05-14T05:22:44;2.97;;;1.80;;
8488;SDS011;4281;45.772;12.852;2023-05-14T05:25:12;1.97;;;1.73;;
8488;SDS011;4281;45.772;12.852;2023-05-14T05:27:40;1.73;;;1.60;;
8488;SDS011;4281;45.772;12.852;2023-05-14T05:30:08;1.97;;;1.40;;
8488;SDS011;4281;45.772;12.852;2023-05-14T05:32:37;1.40;;;1.30;;
8488;SDS011;4281;45.772;12.852;2023-05-14T05:35:05;1.73;;;1.50;;
8488;SDS011;4281;45.772;12.852;2023-05-14T05:37:33;1.50;;;1.40;;
8488;SDS011;4281;45.772;12.852;2023-05-14T05:40:03;1.50;;;1.40;;
8488;SDS011;4281;45.772;12.852;2023-05-14T05:42:32;1.77;;;1.60;;
8488;SDS011;4281;45.772;12.852;2023-05-14T05:45:00;1.50;;;1.40;;
8488;SDS011;4281;45.772;12.852;2023-05-14T05:47:28;1.60;;;1.50;;
8488;SDS011;4281;45.772;12.852;2023-05-14T05:49:56;1.40;;;1.30;;
8488;SDS011;4281;45.772;12.852;2023-05-14T05:52:23;2.03;;;1.30;;
8488;SDS011;4281;45.772;12.852;2023-05-14T05:54:51;1.37;;;1.27;;
8488;SDS011;4281;45.772;12.852;2023-05-14T05:57:21;1.40;;;1.30;;
8488;SDS011;4281;45.772;12.852;2023-05-14T05:59:51;1.60;;;1.40;;
8488;SDS011;4281;45.772;12.852;2023-05-14T06:02:19;1.33;;;1.23;;
8488;SDS011;4281;45.772;12.852;2023-05-14T06:04:48;1.23;;;1.03;;
8488;SDS011;4281;45.772;12.852;2023-05-14T06:07:16;1.30;;;1.10;;
8488;SDS011;4281;45.772;12.852;2023-05-14T06:09:46;0.80;;;0.80;;
8488;SDS011;4281;45.772;12.852;2023-05-14T06:12:13;1.00;;;1.00;;
8488;SDS011;4281;45.772;12.852;2023-05-14T06:14:43;0.83;;;0.83;;
8488;SDS011;4281;45.772;12.852;2023-05-14T06:17:11;0.80;;;0.80;;
8488;SDS011;4281;45.772;12.852;2023-05-14T06:19:38;1.13;;;0.80;;
8488;SDS011;4281;45.772;12.852;2023-05-14T06:22:06;2.10;;;0.90;;
8488;SDS011;4281;45.772;12.852;2023-05-14T06:24:34;0.97;;;0.80;;
8488;SDS011;4281;45.772;12.852;2023-05-14T06:27:02;1.13;;;0.90;;
8488;SDS011;4281;45.772;12.852;2023-05-14T06:29:30;1.47;;;0.90;;
8488;SDS011;4281;45.772;12.852;2023-05-14T06:32:01;1.10;;;1.00;;
8488;SDS011;4281;45.772;12.852;2023-05-14T06:34:34;1.50;;;1.00;;
8488;SDS011;4281;45.772;12.852;2023-05-14T06:37:02;0.97;;;0.87;;
8488;SDS011;4281;45.772;12.852;2023-05-14T06:39:29;1.07;;;0.97;;
8488;SDS011;4281;45.772;12.852;2023-05-14T06:41:58;0.87;;;0.80;;
8488;SDS011;4281;45.772;12.852;2023-05-14T06:44:26;1.07;;;0.97;;
8488;SDS011;4281;45.772;12.852;2023-05-14T06:46:53;0.97;;;0.93;;
8488;SDS011;4281;45.772;12.852;2023-05-14T06:49:23;0.90;;;0.90;;
8488;SDS011;4281;45.772;12.852;2023-05-14T06:51:51;1.30;;;1.20;;
8488;SDS011;4281;45.772;12.852;2023-05-14T06:54:19;2.27;;;1.20;;
8488;SDS011;4281;45.772;12.852;2023-05-14T06:56:47;1.20;;;1.07;;
8488;SDS011;4281;45.772;12.852;2023-05-14T06:59:15;1.30;;;1.17;;
8488;SDS011;4281;45.772;12.852;2023-05-14T07:01:42;1.43;;;1.27;;
8488;SDS011;4281;45.772;12.852;2023-05-14T07:04:10;1.47;;;1.37;;
8488;SDS011;4281;45.772;12.852;2023-05-14T07:06:40;2.37;;;1.67;;
8488;SDS011;4281;45.772;12.852;2023-05-14T07:09:08;1.33;;;1.23;;
8488;SDS011;4281;45.772;12.852;2023-05-14T07:11:37;1.97;;;1.20;;
8488;SDS011;4281;45.772;12.852;2023-05-14T07:14:05;1.80;;;1.40;;
8488;SDS011;4281;45.772;12.852;2023-05-14T07:16:34;2.00;;;1.40;;
8488;SDS011;4281;45.772;12.852;2023-05-14T07:19:02;2.20;;;1.23;;
8488;SDS011;4281;45.772;12.852;2023-05-14T07:21:30;1.47;;;1.37;;
8488;SDS011;4281;45.772;12.852;2023-05-14T07:23:59;1.40;;;1.10;;
8488;SDS011;4281;45.772;12.852;2023-05-14T07:26:27;1.10;;;1.03;;
8488;SDS011;4281;45.772;12.852;2023-05-14T07:28:55;1.63;;;1.20;;
8488;SDS011;4281;45.772;12.852;2023-05-14T07:31:23;2.50;;;1.30;;
8488;SDS011;4281;45.772;12.852;2023-05-14T07:33:51;1.20;;;1.10;;
8488;SDS011;4281;45.772;12.852;2023-05-14T07:36:19;2.17;;;1.30;;
8488;SDS011;4281;45.772;12.852;2023-05-14T07:38:47;2.23;;;1.40;;
8488;SDS011;4281;45.772;12.852;2023-05-14T07:41:17;0.90;;;0.90;;
8488;SDS011;4281;45.772;12.852;2023-05-14T07:43:44;1.30;;;1.10;;
8488;SDS011;4281;45.772;12.852;2023-05-14T07:46:12;1.10;;;1.00;;
8488;SDS011;4281;45.772;12.852;2023-05-14T07:48:40;1.23;;;1.10;;
8488;SDS011;4281;45.772;12.852;2023-05-14T07:51:09;1.77;;;1.40;;
8488;SDS011;4281;45.772;12.852;2023-05-14T07:53:37;1.17;;;1.03;;
8488;SDS011;4281;45.772;12.852;2023-05-14T07:56:06;1.03;;;0.97;;
8488;SDS011;4281;45.772;12.852;2023-05-14T07:58:35;1.73;;;0.90;;
8488;SDS011;4281;45.772;12.852;2023-05-14T08:01:03;1.10;;;1.00;;
8488;SDS011;4281;45.772;12.852;2023-05-14T08:03:34;1.23;;;1.10;;
8488;SDS011;4281;45.772;12.852;2023-05-14T08:06:02;1.37;;;1.10;;
8488;SDS011;4281;45.772;12.852;2023-05-14T08:08:30;1.60;;;1.03;;
8488;SDS011;4281;45.772;12.852;2023-05-14T08:10:58;1.13;;;1.03;;
8488;SDS011;4281;45.772;12.852;2023-05-14T08:13:26;1.23;;;1.13;;
8488;SDS011;4281;45.772;12.852;2023-05-14T08:15:55;1.53;;;1.17;;
8488;SDS011;4281;45.772;12.852;2023-05-14T08:18:23;1.37;;;1.20;;
8488;SDS011;4281;45.772;12.852;2023-05-14T08:20:51;1.20;;;1.10;;
8488;SDS011;4281;45.772;12.852;2023-05-14T08:23:19;1.40;;;1.30;;
8488;SDS011;4281;45.772;12.852;2023-05-14T08:25:47;2.23;;;1.33;;
8488;SDS011;4281;45.772;12.852;2023-05-14T08:28:15;1.30;;;1.20;;
8488;SDS011;4281;45.772;12.852;2023-05-14T08:30:43;1.40;;;1.30;;
8488;SDS011;4281;45.772;12.852;2023-05-14T08:33:12;1.63;;;1.27;;
8488;SDS011;4281;45.772;12.852;2023-05-14T08:35:40;1.10;;;1.00;;
8488;SDS011;4281;45.772;12.852;2023-05-14T08:38:08;1.70;;;1.30;;
8488;SDS011;4281;45.772;12.852;2023-05-14T08:40:36;1.27;;;1.10;;
8488;SDS011;4281;45.772;12.852;2023-05-14T08:43:04;1.30;;;1.20;;
8488;SDS011;4281;45.772;12.852;2023-05-14T08:45:32;1.30;;;1.20;;
8488;SDS011;4281;45.772;12.852;2023-05-14T08:48:01;1.30;;;1.20;;
8488;SDS011;4281;45.772;12.852;2023-05-14T08:50:35;1.50;;;1.40;;
8488;SDS011;4281;45.772;12.852;2023-05-14T08:53:04;1.20;;;1.00;;
8488;SDS011;4281;45.772;12.852;2023-05-14T08:55:32;1.57;;;1.27;;
8488;SDS011;4281;45.772;12.852;2023-05-14T08:58:00;1.17;;;1.10;;
8488;SDS011;4281;45.772;12.852;2023-05-14T09:00:28;1.30;;;1.20;;
8488;SDS011;4281;45.772;12.852;2023-05-14T09:02:56;1.67;;;1.40;;
8488;SDS011;4281;45.772;12.852;2023-05-14T09:05:24;1.20;;;1.10;;
8488;SDS011;4281;45.772;12.852;2023-05-14T09:07:53;2.13;;;1.63;;
8488;SDS011;4281;45.772;12.852;2023-05-14T09:10:21;1.77;;;1.60;;
8488;SDS011;4281;45.772;12.852;2023-05-14T09:12:50;1.40;;;1.30;;
8488;SDS011;4281;45.772;12.852;2023-05-14T09:15:18;1.40;;;1.30;;
8488;SDS011;4281;45.772;12.852;2023-05-14T09:17:46;1.50;;;1.40;;
8488;SDS011;4281;45.772;12.852;2023-05-14T09:20:14;1.63;;;1.53;;
8488;SDS011;4281;45.772;12.852;2023-05-14T09:22:42;1.60;;;1.40;;
8488;SDS011;4281;45.772;12.852;2023-05-14T09:25:11;1.63;;;1.33;;
8488;SDS011;4281;45.772;12.852;2023-05-14T09:27:41;1.60;;;1.47;;
8488;SDS011;4281;45.772;12.852;2023-05-14T09:30:09;2.13;;;1.50;;
8488;SDS011;4281;45.772;12.852;2023-05-14T09:32:38;1.90;;;1.70;;
8488;SDS011;4281;45.772;12.852;2023-05-14T09:35:13;2.30;;;2.10;;
8488;SDS011;4281;45.772;12.852;2023-05-14T09:37:43;3.13;;;2.10;;
8488;SDS011;4281;45.772;12.852;2023-05-14T09:40:14;2.10;;;1.90;;
8488;SDS011;4281;45.772;12.852;2023-05-14T09:42:43;2.90;;;2.07;;
8488;SDS011;4281;45.772;12.852;2023-05-14T09:45:11;2.53;;;2.33;;
8488;SDS011;4281;45.772;12.852;2023-05-14T09:47:39;2.47;;;2.27;;
8488;SDS011;4281;45.772;12.852;2023-05-14T09:50:07;3.27;;;1.90;;
8488;SDS011;4281;45.772;12.852;2023-05-14T09:52:36;2.50;;;2.20;;
8488;SDS011;4281;45.772;12.852;2023-05-14T09:55:05;2.20;;;2.00;;
8488;SDS011;4281;45.772;12.852;2023-05-14T09:57:35;2.20;;;1.90;;
8488;SDS011;4281;45.772;12.852;2023-05-14T10:00:03;1.90;;;1.67;;
8488;SDS011;4281;45.772;12.852;2023-05-14T10:02:33;1.60;;;1.40;;
8488;SDS011;4281;45.772;12.852;2023-05-14T10:05:04;2.30;;;1.40;;
8488;SDS011;4281;45.772;12.852;2023-05-14T10:07:34;1.50;;;1.40;;
8488;SDS011;4281;45.772;12.852;2023-05-14T10:10:07;1.90;;;1.70;;
8488;SDS011;4281;45.772;12.852;2023-05-14T10:12:41;2.30;;;2.10;;
8488;SDS011;4281;45.772;12.852;2023-05-14T10:15:15;2.20;;;2.00;;
8488;SDS011;4281;45.772;12.852;2023-05-14T10:17:46;1.90;;;1.80;;
8488;SDS011;4281;45.772;12.852;2023-05-14T10:20:15;2.40;;;2.00;;
8488;SDS011;4281;45.772;12.852;2023-05-14T10:22:43;2.20;;;2.00;;
8488;SDS011;4281;45.772;12.852;2023-05-14T10:25:11;2.43;;;2.20;;
8488;SDS011;4281;45.772;12.852;2023-05-14T10:27:39;2.70;;;1.90;;
8488;SDS011;4281;45.772;12.852;2023-05-14T10:30:10;2.30;;;2.10;;
8488;SDS011;4281;45.772;12.852;2023-05-14T10:32:39;2.40;;;2.20;;
8488;SDS011;4281;45.772;12.852;2023-05-14T10:35:19;2.77;;;2.33;;
8488;SDS011;4281;45.772;12.852;2023-05-14T10:37:50;2.23;;;2.03;;
8488;SDS011;4281;45.772;12.852;2023-05-14T10:40:18;2.40;;;2.20;;
8488;SDS011;4281;45.772;12.852;2023-05-14T10:42:48;2.70;;;2.50;;
8488;SDS011;4281;45.772;12.852;2023-05-14T10:45:16;2.50;;;2.30;;
8488;SDS011;4281;45.772;12.852;2023-05-14T10:47:44;2.07;;;1.93;;
8488;SDS011;4281;45.772;12.852;2023-05-14T10:50:13;2.40;;;2.20;;
8488;SDS011;4281;45.772;12.852;2023-05-14T10:52:43;2.47;;;2.27;;
8488;SDS011;4281;45.772;12.852;2023-05-14T10:55:12;2.13;;;1.87;;
8488;SDS011;4281;45.772;12.852;2023-05-14T10:57:41;2.33;;;2.13;;
8488;SDS011;4281;45.772;12.852;2023-05-14T11:00:11;2.00;;;1.80;;
8488;SDS011;4281;45.772;12.852;2023-05-14T11:02:40;1.70;;;1.60;;
8488;SDS011;4281;45.772;12.852;2023-05-14T11:05:12;1.70;;;1.60;;
8488;SDS011;4281;45.772;12.852;2023-05-14T11:07:41;1.87;;;1.77;;
8488;SDS011;4281;45.772;12.852;2023-05-14T11:10:10;2.90;;;2.20;;
8488;SDS011;4281;45.772;12.852;2023-05-14T11:12:40;2.70;;;2.50;;
8488;SDS011;4281;45.772;12.852;2023-05-14T11:15:09;3.20;;;2.23;;
8488;SDS011;4281;45.772;12.852;2023-05-14T11:17:39;2.57;;;2.37;;
8488;SDS011;4281;45.772;12.852;2023-05-14T11:20:08;2.10;;;2.00;;
8488;SDS011;4281;45.772;12.852;2023-05-14T11:22:38;3.27;;;1.97;;
8488;SDS011;4281;45.772;12.852;2023-05-14T11:25:07;2.10;;;1.90;;
8488;SDS011;4281;45.772;12.852;2023-05-14T11:27:37;2.20;;;2.00;;
8488;SDS011;4281;45.772;12.852;2023-05-14T11:30:10;2.33;;;1.83;;
8488;SDS011;4281;45.772;12.852;2023-05-14T11:32:42;3.50;;;1.90;;
8488;SDS011;4281;45.772;12.852;2023-05-14T11:35:11;1.83;;;1.73;;
8488;SDS011;4281;45.772;12.852;2023-05-14T11:37:39;2.20;;;2.00;;
8488;SDS011;4281;45.772;12.852;2023-05-14T11:40:07;2.00;;;1.80;;
8488;SDS011;4281;45.772;12.852;2023-05-14T11:42:40;2.20;;;2.00;;
8488;SDS011;4281;45.772;12.852;2023-05-14T11:45:09;2.40;;;2.20;;
8488;SDS011;4281;45.772;12.852;2023-05-14T11:47:40;2.20;;;2.00;;
8488;SDS011;4281;45.772;12.852;2023-05-14T11:50:09;1.90;;;1.80;;
8488;SDS011;4281;45.772;12.852;2023-05-14T11:52:38;2.13;;;1.93;;
8488;SDS011;4281;45.772;12.852;2023-05-14T11:55:09;2.10;;;1.90;;
8488;SDS011;4281;45.772;12.852;2023-05-14T11:57:37;1.80;;;1.70;;
8488;SDS011;4281;45.772;12.852;2023-05-14T12:00:06;2.07;;;1.87;;
8488;SDS011;4281;45.772;12.852;2023-05-14T12:02:36;2.10;;;1.90;;
8488;SDS011;4281;45.772;12.852;2023-05-14T12:05:06;2.70;;;1.70;;
8488;SDS011;4281;45.772;12.852;2023-05-14T12:07:37;2.53;;;1.70;;
8488;SDS011;4281;45.772;12.852;2023-05-14T12:10:06;1.90;;;1.70;;
8488;SDS011;4281;45.772;12.852;2023-05-14T12:12:35;1.77;;;1.67;;
8488;SDS011;4281;45.772;12.852;2023-05-14T12:15:09;2.10;;;1.70;;
8488;SDS011;4281;45.772;12.852;2023-05-14T12:17:38;2.03;;;1.83;;
8488;SDS011;4281;45.772;12.852;2023-05-14T12:20:08;2.20;;;2.00;;
8488;SDS011;4281;45.772;12.852;2023-05-14T12:22:37;2.00;;;1.83;;
8488;SDS011;4281;45.772;12.852;2023-05-14T12:25:09;2.40;;;1.60;;
8488;SDS011;4281;45.772;12.852;2023-05-14T12:27:39;1.53;;;1.43;;
8488;SDS011;4281;45.772;12.852;2023-05-14T12:30:07;1.30;;;1.20;;
8488;SDS011;4281;45.772;12.852;2023-05-14T12:32:38;1.53;;;1.37;;
8488;SDS011;4281;45.772;12.852;2023-05-14T12:35:08;1.83;;;1.30;;
8488;SDS011;4281;45.772;12.852;2023-05-14T12:37:36;1.13;;;1.07;;
8488;SDS011;4281;45.772;12.852;2023-05-14T12:40:05;1.27;;;1.00;;
8488;SDS011;4281;45.772;12.852;2023-05-14T12:42:46;0.80;;;0.80;;
8488;SDS011;4281;45.772;12.852;2023-05-14T12:45:14;1.03;;;0.70;;
8488;SDS011;4281;45.772;12.852;2023-05-14T12:47:43;0.90;;;0.90;;
8488;SDS011;4281;45.772;12.852;2023-05-14T12:50:12;0.70;;;0.70;;
8488;SDS011;4281;45.772;12.852;2023-05-14T12:52:40;0.80;;;0.80;;
8488;SDS011;4281;45.772;12.852;2023-05-14T12:55:08;0.63;;;0.60;;
8488;SDS011;4281;45.772;12.852;2023-05-14T12:57:36;0.60;;;0.60;;
8488;SDS011;4281;45.772;12.852;2023-05-14T13:00:05;1.33;;;0.60;;
8488;SDS011;4281;45.772;12.852;2023-05-14T13:02:39;0.60;;;0.50;;
8488;SDS011;4281;45.772;12.852;2023-05-14T13:05:09;0.50;;;0.50;;
8488;SDS011;4281;45.772;12.852;2023-05-14T13:07:38;0.53;;;0.53;;
8488;SDS011;4281;45.772;12.852;2023-05-14T13:10:07;0.43;;;0.43;;
8488;SDS011;4281;45.772;12.852;2023-05-14T13:12:35;0.70;;;0.70;;
8488;SDS011;4281;45.772;12.852;2023-05-14T13:15:04;0.70;;;0.60;;
8488;SDS011;4281;45.772;12.852;2023-05-14T13:17:32;0.60;;;0.50;;
8488;SDS011;4281;45.772;12.852;2023-05-14T13:20:00;1.43;;;0.60;;
8488;SDS011;4281;45.772;12.852;2023-05-14T13:22:28;0.77;;;0.60;;
8488;SDS011;4281;45.772;12.852;2023-05-14T13:24:57;0.47;;;0.47;;
8488;SDS011;4281;45.772;12.852;2023-05-14T13:27:25;0.93;;;0.60;;
8488;SDS011;4281;45.772;12.852;2023-05-14T13:29:53;1.30;;;0.60;;
8488;SDS011;4281;45.772;12.852;2023-05-14T13:32:21;0.50;;;0.50;;
8488;SDS011;4281;45.772;12.852;2023-05-14T13:34:49;0.60;;;0.60;;
8488;SDS011;4281;45.772;12.852;2023-05-14T13:37:17;0.50;;;0.50;;
8488;SDS011;4281;45.772;12.852;2023-05-14T13:39:46;0.60;;;0.60;;
8488;SDS011;4281;45.772;12.852;2023-05-14T13:42:17;0.50;;;0.50;;
8488;SDS011;4281;45.772;12.852;2023-05-14T13:44:45;0.50;;;0.50;;
8488;SDS011;4281;45.772;12.852;2023-05-14T13:47:13;0.40;;;0.40;;
8488;SDS011;4281;45.772;12.852;2023-05-14T13:49:41;0.60;;;0.60;;
8488;SDS011;4281;45.772;12.852;2023-05-14T13:52:09;0.60;;;0.60;;
8488;SDS011;4281;45.772;12.852;2023-05-14T13:54:37;0.50;;;0.50;;
8488;SDS011;4281;45.772;12.852;2023-05-14T13:57:05;0.50;;;0.50;;
8488;SDS011;4281;45.772;12.852;2023-05-14T13:59:34;0.50;;;0.50;;
8488;SDS011;4281;45.772;12.852;2023-05-14T14:02:04;0.40;;;0.40;;
8488;SDS011;4281;45.772;12.852;2023-05-14T14:04:32;0.60;;;0.60;;
8488;SDS011;4281;45.772;12.852;2023-05-14T14:07:00;0.70;;;0.50;;
8488;SDS011;4281;45.772;12.852;2023-05-14T14:09:28;0.60;;;0.60;;
8488;SDS011;4281;45.772;12.852;2023-05-14T14:12:00;0.60;;;0.60;;
8488;SDS011;4281;45.772;12.852;2023-05-14T14:14:28;0.60;;;0.60;;
8488;SDS011;4281;45.772;12.852;2023-05-14T14:16:57;0.87;;;0.60;;
8488;SDS011;4281;45.772;12.852;2023-05-14T14:19:25;1.03;;;0.80;;
8488;SDS011;4281;45.772;12.852;2023-05-14T14:21:53;0.80;;;0.80;;
8488;SDS011;4281;45.772;12.852;2023-05-14T14:24:21;0.70;;;0.70;;
8488;SDS011;4281;45.772;12.852;2023-05-14T14:26:49;0.80;;;0.80;;
8488;SDS011;4281;45.772;12.852;2023-05-14T14:29:17;1.37;;;0.80;;
8488;SDS011;4281;45.772;12.852;2023-05-14T14:31:45;0.80;;;0.80;;
8488;SDS011;4281;45.772;12.852;2023-05-14T14:34:14;1.07;;;0.97;;
8488;SDS011;4281;45.772;12.852;2023-05-14T14:36:42;1.33;;;1.23;;
8488;SDS011;4281;45.772;12.852;2023-05-14T14:39:10;1.03;;;0.93;;
8488;SDS011;4281;45.772;12.852;2023-05-14T14:41:37;1.03;;;0.93;;
8488;SDS011;4281;45.772;12.852;2023-05-14T14:44:05;0.80;;;0.80;;
8488;SDS011;4281;45.772;12.852;2023-05-14T14:46:33;0.77;;;0.77;;
8488;SDS011;4281;45.772;12.852;2023-05-14T14:49:01;0.87;;;0.80;;
8488;SDS011;4281;45.772;12.852;2023-05-14T14:51:31;0.60;;;0.60;;
8488;SDS011;4281;45.772;12.852;2023-05-14T14:53:59;1.17;;;0.50;;
8488;SDS011;4281;45.772;12.852;2023-05-14T14:56:27;0.40;;;0.40;;
8488;SDS011;4281;45.772;12.852;2023-05-14T14:58:55;0.60;;;0.60;;
8488;SDS011;4281;45.772;12.852;2023-05-14T15:01:23;1.50;;;0.80;;
8488;SDS011;4281;45.772;12.852;2023-05-14T15:03:51;0.80;;;0.80;;
8488;SDS011;4281;45.772;12.852;2023-05-14T15:06:19;0.80;;;0.80;;
8488;SDS011;4281;45.772;12.852;2023-05-14T15:08:48;1.10;;;1.00;;